Cloud Lake, Florida
Current Conditions -  °F | °C
As of 9:53 PM on Monday 22 Dec 2014 (Local Time) from KPBI Reporting Station
Few Clouds Few Clouds  
Wind Chill: 75°   Ceiling: Unl
Heat Index: 75°   Visibility: 10mi
Dew Point: 70°   Wind: 5mph
Humidity: 84%   Direction: 170°S
Pressure: 29.97"   Gusts: NA
Location:  26.6662°N, 80.0908°W
Report Text: KPBI 230253Z 17004KT 10SM FEW250 24/21 A2997 RMK AO2 SLP148 T02390211 51007
Loading
Personal Weather Stations






























Interactive Weather Map New forecast layout! Learn more

10-Day Weather Forecast

Advertisements
Track Severe Weather on mobile